Daily Tabular Data
[Select Refresh to Update]


4/16/18
Time         Wind Dir   Wind Spd  Wind Gust     Hum In   Humidity    Temp In       Temp  Raw Barom   Tot Rain Wind Chill Heat Ix In Heat Index  Dew Point  DailyRain   HourRain   RainRate
                            mph        mph          %          %         F         F         in         in         F         F         F         F         in         in      in/hr
12:00am           107          1          2         34         84       75.3       56.6      29.12       4.41       56.6       74.8       61.4       51.8       0.00       0.00      0.000
12:30am            64          1          6         35         81       75.2       57.2      29.11       4.41       57.2       74.7       61.6       51.4       0.00       0.00      0.000
1:00am             78          0          2         35         73       75.2       57.1      29.12       4.41       57.1       74.7       60.4       48.5       0.00       0.00      0.000
1:30am            205          0          2         35         81       75.1       57.2      29.12       4.41       57.2       74.6       61.6       51.4       0.00       0.00      0.000
2:00am            269          2          2         35         84       74.9       55.4      29.11       4.41       55.4       74.4       60.2       50.7       0.00       0.00      0.000
2:30am            110          0          2         36         85       74.8       54.7      29.11       4.41       54.7       74.4       59.6       50.3       0.00       0.00      0.000
3:00am            111          0          1         36         85       74.6       54.0      29.11       4.41       54.0       74.2       58.9       49.6       0.00       0.00      0.000
3:30am             76          2          4         36         83       74.4       53.4      29.11       4.41       53.4       74.0       58.0       48.4       0.00       0.00      0.000
4:00am             86          3          3         36         82       74.2       53.6      29.12       4.41       53.6       73.8       58.1       48.2       0.00       0.00      0.000
4:30am            115          0          3         36         83       74.0       52.1      29.12       4.41       52.1       73.6       56.7       47.1       0.00       0.00      0.000
5:00am            115          0          1         36         84       73.9       51.9      29.12       4.41       51.9       73.5       56.7       47.2       0.00       0.00      0.000
5:30am            115          0          0         36         84       73.7       51.7      29.13       4.41       51.7       73.3       56.5       47.0       0.00       0.00      0.000
6:00am            115          1          1         36         81       73.5       52.5      29.13       4.41       52.5       73.1       56.9       46.8       0.00       0.00      0.000
6:30am             81          0          2         36         80       73.2       51.9      29.14       4.41       51.9       72.8       56.1       45.9       0.00       0.00      0.000
7:00am             81          0          0         36         86       73.1       54.7      29.15       4.41       54.7       72.7       59.8       50.6       0.00       0.00      0.000
7:30am            218          0          1         36         88       73.1       56.5      29.16       4.41       56.5       72.7       61.8       53.0       0.00       0.00      0.000
8:00am            238          0          1         37         88       73.1       56.4      29.16       4.41       56.4       72.8       61.7       52.9       0.00       0.00      0.000
8:30am            296          0          3         37         84       73.2       56.5      29.17       4.41       56.5       72.9       61.3       51.7       0.00       0.00      0.000
9:00am            251          0          3         40         75       72.0       58.5      29.17       4.41       58.5       71.9       62.1       50.6       0.00       0.00      0.000
9:30am            101          0          5         39         62       73.0       64.8      29.17       4.41       64.8       72.8       66.8       51.5       0.00       0.00      0.000
10:00am           258          1          7         38         60       73.3       63.8      29.18       4.41       63.8       73.1       65.6       49.7       0.00       0.00      0.000
10:30am           229          4          5         40         62       72.0       63.1      29.18       4.41       63.1       71.9       65.1       49.9       0.00       0.00      0.000
11:00am           267         10         12         43         67       70.4       60.6      29.19       4.41       59.2       70.6       63.2       49.6       0.00       0.00      0.000
11:30am           235          5         14         41         66       71.7       62.4      29.19       4.41       62.4       71.7       64.9       50.9       0.00       0.00      0.000
12:00pm           230          1         11         40         65       72.8       61.4      29.20       4.41       61.4       72.7       63.8       49.5       0.00       0.00      0.000
12:30pm           248          4         13         39         58       73.4       62.9      29.19       4.41       62.9       73.2       64.5       47.9       0.00       0.00      0.000
1:00pm            251          2         12         38         49       73.6       63.6      29.19       4.41       63.6       73.4       64.3       44.1       0.00       0.00      0.000
1:30pm            286         11         15         37         43       73.8       63.4      29.19       4.41       62.5       73.5       63.6       40.5       0.00       0.00      0.000
2:00pm            253         10         16         37         44       74.1       64.3      29.19       4.41       63.8       73.8       64.6       41.9       0.00       0.00      0.000
2:30pm            254         12         14         36         45       74.2       63.0      29.19       4.41       61.8       73.8       63.3       41.3       0.00       0.00      0.000
3:00pm            261          2         16         36         40       74.5       62.8      29.18       4.41       62.8       74.1       62.7       38.1       0.00       0.00      0.000
3:30pm            214          3         12         35         39       74.5       63.6      29.18       4.41       63.6       74.0       63.4       38.2       0.00       0.00      0.000
4:00pm            269          8         15         30         45       74.6       62.2      29.18       4.41       61.6       73.8       62.5       40.6       0.00       0.00      0.000
4:30pm            273          2         15         32         50       72.8       61.5      29.18       4.41       61.5       72.1       62.3       42.7       0.00       0.00      0.000
5:00pm            250          9         12         33         54       72.3       60.6      29.19       4.41       59.4       71.7       61.8       43.9       0.00       0.00      0.000
5:30pm            297          5         16         33         56       71.6       59.3      29.20       4.41       59.1       71.0       60.7       43.6       0.00       0.00      0.000
6:00pm            276          6         13         35         61       71.1       58.4      29.21       4.41       57.7       70.6       60.3       45.0       0.00       0.00      0.000
6:30pm            277          6         13         36         61       70.5       57.4      29.21       4.41       56.5       70.1       59.3       44.1       0.00       0.00      0.000
7:00pm            251          5         11         37         65       71.0       55.8      29.21       4.41       55.0       70.7       58.2       44.2       0.00       0.00      0.000
7:30pm            237          5          9         37         66       72.5       54.6      29.22       4.41       53.6       72.2       57.1       43.5       0.00       0.00      0.000
8:00pm            227          1         12         36         70       73.2       53.6      29.23       4.41       53.6       72.8       56.6       44.1       0.00       0.00      0.000
8:30pm            328          3         11         36         71       73.5       53.1      29.24       4.41       53.1       73.1       56.2       44.0       0.00       0.00      0.000
9:00pm            246          3         12         36         72       73.5       52.9      29.26       4.41       52.9       73.1       56.1       44.1       0.00       0.00      0.000
9:30pm            272          2         10         37         70       73.5       52.8      29.27       4.41       52.8       73.2       55.8       43.3       0.00       0.00      0.000
10:00pm           254          2         11         36         70       73.4       52.8      29.27       4.41       52.8       73.0       55.8       43.3       0.00       0.00      0.000
10:30pm           261          1         10         36         73       73.4       52.5      29.27       4.41       52.5       73.0       55.8       44.1       0.00       0.00      0.000
11:00pm           269          6          9         36         70       73.2       52.4      29.28       4.41       50.5       72.8       55.4       42.9       0.00       0.00      0.000
11:30pm           271          1         12         35         69       73.2       52.0      29.28       4.41       52.0       72.7       54.8       42.2       0.00       0.00      0.000